Terminal Aerodrome Forecast
Issued by NWS Louisville, KY

Home | Current Version | Previous Version | Graphics & Text | Print | Product List | Glossary On
Versions: 1 2 3 4 5 6 7 8 9 10 11 12 13 14 15 16 17 18
000
FTUS43 KLMK 190522
TAFBWG
TAF
KBWG 190522Z 1906/2006 00000KT P6SM SKC
      TEMPO 1908/1912 2SM BR
     FM191500 21007KT P6SM SKC
     FM200000 00000KT P6SM SKC=

USA.gov is the U.S. government's official web portal to all federal, state and local government web resources and services.